Airfield :
LOGIN :

Register | Disclaimer

   EN    FR    IT 

 










Legend :    VFR   Marginal VFR   IFR   Intensive IFR   Very Intensive IFR
Visi :
Ceiling :
>= 8 km
>= 3000ft
5 to 8 km
1000 to 3000 ft
1500m to 5 km
500 to 1000 ft
800 to 1500m
200 to 500 ft
< 800m
< 200 ft
Symbols :   Thunderstorms  Fog  Heavy snow  Heavy precipitations  Wind > 20 kt
SIGMETs :     Misc.  Thunderstorms  Icing  Turbulence  Mountain Waves  Volcanic Ashes






- Airport Elevation : 459 ft
- IATA code : CER


LFRC - Cherbourg / Maupertus

CURRENT METAR :
  • 131000Z AUTO 31004KT 270V360 CAVOK 20/07 Q1026 NOSIG

EXPIRED METARs :
  • 130930Z AUTO 31004KT 280V360 CAVOK 19/08 Q1026 NOSIG
  • 130900Z AUTO 34004KT 290V010 CAVOK 19/09 Q1026 NOSIG
  • 130830Z AUTO 32004KT 280V020 CAVOK 18/09 Q1026 NOSIG
  • 130800Z AUTO 36003KT 290V040 CAVOK 19/10 Q1026 NOSIG
  • 130730Z AUTO 01004KT 330V040 CAVOK 18/09 Q1026 NOSIG

TAF TAF LFRC
Valid from the 13 at 09:00 until the 13 at 18:00 UTC


130800Z 1309/1318 02005KT CAVOK
BECMG 1314/1316 30010KT



MET'MAP, your aeronautical weather chart ! - Copyright ORBIFLY December 2007 - Disclaimer

ORBIFLY MET'MAP TEAM :

Programming & Development : Alexandra Zaïnal
Concept & original design : Baudouin d'Aumeries
Assistance for programming : Marc-Olivier Méhu
Technical & hardware support : Manuel Goepfert

Contact : metmap@orbifly.com




SOURCES & CREDITS :

   NOAA